sensor_id;sensor_type;location;lat;lon;timestamp;temperature;humidity
57390;DHT22;43217;52.694;6.214;2022-08-04T00:00:14;22.20;99.90
57390;DHT22;43217;52.694;6.214;2022-08-04T00:08:43;22.00;99.90
57390;DHT22;43217;52.694;6.214;2022-08-04T00:11:09;21.90;99.90
57390;DHT22;43217;52.694;6.214;2022-08-04T00:13:39;21.90;99.90
57390;DHT22;43217;52.694;6.214;2022-08-04T00:16:08;21.80;99.90
57390;DHT22;43217;52.694;6.214;2022-08-04T00:18:48;21.80;99.90
57390;DHT22;43217;52.694;6.214;2022-08-04T00:21:15;21.80;99.90
57390;DHT22;43217;52.694;6.214;2022-08-04T00:23:44;21.70;99.90
57390;DHT22;43217;52.694;6.214;2022-08-04T00:26:10;21.70;99.90
57390;DHT22;43217;52.694;6.214;2022-08-04T00:28:36;21.60;99.90
57390;DHT22;43217;52.694;6.214;2022-08-04T00:31:04;21.60;99.90
57390;DHT22;43217;52.694;6.214;2022-08-04T00:33:30;21.60;99.90
57390;DHT22;43217;52.694;6.214;2022-08-04T00:35:56;21.50;99.90
57390;DHT22;43217;52.694;6.214;2022-08-04T00:38:23;21.50;99.90
57390;DHT22;43217;52.694;6.214;2022-08-04T00:43:30;21.40;99.90
57390;DHT22;43217;52.694;6.214;2022-08-04T00:57:39;21.50;99.90
57390;DHT22;43217;52.694;6.214;2022-08-04T01:00:15;21.50;99.90
57390;DHT22;43217;52.694;6.214;2022-08-04T01:07:48;21.50;99.90
57390;DHT22;43217;52.694;6.214;2022-08-04T01:13:25;21.50;99.90
57390;DHT22;43217;52.694;6.214;2022-08-04T01:18:52;21.40;99.90
57390;DHT22;43217;52.694;6.214;2022-08-04T01:27:03;21.40;99.90
57390;DHT22;43217;52.694;6.214;2022-08-04T01:29:33;21.30;99.90
57390;DHT22;43217;52.694;6.214;2022-08-04T01:32:07;21.30;99.90
57390;DHT22;43217;52.694;6.214;2022-08-04T01:34:42;21.30;99.90
57390;DHT22;43217;52.694;6.214;2022-08-04T01:40:12;21.20;99.90
57390;DHT22;43217;52.694;6.214;2022-08-04T01:42:41;21.20;99.90
57390;DHT22;43217;52.694;6.214;2022-08-04T01:45:09;21.10;99.90
57390;DHT22;43217;52.694;6.214;2022-08-04T01:47:37;21.10;99.90
57390;DHT22;43217;52.694;6.214;2022-08-04T01:50:12;21.10;99.90
57390;DHT22;43217;52.694;6.214;2022-08-04T01:52:42;21.10;99.90
57390;DHT22;43217;52.694;6.214;2022-08-04T01:55:10;21.00;99.90
57390;DHT22;43217;52.694;6.214;2022-08-04T01:57:59;21.00;99.90
57390;DHT22;43217;52.694;6.214;2022-08-04T02:00:27;21.00;99.90
57390;DHT22;43217;52.694;6.214;2022-08-04T02:02:55;20.90;99.90
57390;DHT22;43217;52.694;6.214;2022-08-04T02:05:21;20.90;99.90
57390;DHT22;43217;52.694;6.214;2022-08-04T02:10:34;20.80;99.90
57390;DHT22;43217;52.694;6.214;2022-08-04T02:13:22;20.80;99.90
57390;DHT22;43217;52.694;6.214;2022-08-04T02:16:01;20.80;99.90
57390;DHT22;43217;52.694;6.214;2022-08-04T02:21:19;20.70;99.90
57390;DHT22;43217;52.694;6.214;2022-08-04T02:23:52;20.60;99.90
57390;DHT22;43217;52.694;6.214;2022-08-04T02:26:19;20.60;99.90
57390;DHT22;43217;52.694;6.214;2022-08-04T02:29:20;20.60;99.90
57390;DHT22;43217;52.694;6.214;2022-08-04T02:37:03;20.40;99.90
57390;DHT22;43217;52.694;6.214;2022-08-04T02:39:33;20.40;99.90
57390;DHT22;43217;52.694;6.214;2022-08-04T02:42:02;20.40;99.90
57390;DHT22;43217;52.694;6.214;2022-08-04T02:44:29;20.40;99.90
57390;DHT22;43217;52.694;6.214;2022-08-04T02:46:56;20.40;99.90
57390;DHT22;43217;52.694;6.214;2022-08-04T02:49:25;20.30;99.90
57390;DHT22;43217;52.694;6.214;2022-08-04T02:51:53;20.30;99.90
57390;DHT22;43217;52.694;6.214;2022-08-04T02:54:26;20.30;99.90
57390;DHT22;43217;52.694;6.214;2022-08-04T02:56:54;20.30;99.90
57390;DHT22;43217;52.694;6.214;2022-08-04T02:59:25;20.30;99.90
57390;DHT22;43217;52.694;6.214;2022-08-04T03:01:54;20.30;99.90
57390;DHT22;43217;52.694;6.214;2022-08-04T03:27:20;20.10;99.90
57390;DHT22;43217;52.694;6.214;2022-08-04T03:30:10;20.10;99.90
57390;DHT22;43217;52.694;6.214;2022-08-04T03:43:55;20.00;99.90
57390;DHT22;43217;52.694;6.214;2022-08-04T03:49:51;20.00;99.90
57390;DHT22;43217;52.694;6.214;2022-08-04T03:55:51;20.00;99.90
57390;DHT22;43217;52.694;6.214;2022-08-04T04:07:32;19.90;99.90
57390;DHT22;43217;52.694;6.214;2022-08-04T04:13:23;19.80;99.90
57390;DHT22;43217;52.694;6.214;2022-08-04T04:27:17;19.70;99.90
57390;DHT22;43217;52.694;6.214;2022-08-04T04:30:04;19.80;99.90
57390;DHT22;43217;52.694;6.214;2022-08-04T04:36:09;19.80;99.90
57390;DHT22;43217;52.694;6.214;2022-08-04T04:50:02;19.90;99.90
57390;DHT22;43217;52.694;6.214;2022-08-04T04:57:35;20.10;99.90
57390;DHT22;43217;52.694;6.214;2022-08-04T05:00:07;20.20;99.90
57390;DHT22;43217;52.694;6.214;2022-08-04T05:02:50;20.30;99.90
57390;DHT22;43217;52.694;6.214;2022-08-04T05:08:30;20.60;99.90
57390;DHT22;43217;52.694;6.214;2022-08-04T05:11:08;20.70;99.90
57390;DHT22;43217;52.694;6.214;2022-08-04T05:13:45;20.80;99.90
57390;DHT22;43217;52.694;6.214;2022-08-04T05:19:19;21.10;99.90
57390;DHT22;43217;52.694;6.214;2022-08-04T05:21:52;21.20;99.90
57390;DHT22;43217;52.694;6.214;2022-08-04T05:24:22;21.20;99.90
57390;DHT22;43217;52.694;6.214;2022-08-04T05:26:54;21.20;99.90
57390;DHT22;43217;52.694;6.214;2022-08-04T05:29:28;21.20;99.90
57390;DHT22;43217;52.694;6.214;2022-08-04T05:31:56;21.30;99.90
57390;DHT22;43217;52.694;6.214;2022-08-04T05:34:29;21.40;99.90
57390;DHT22;43217;52.694;6.214;2022-08-04T05:37:02;21.60;99.90
57390;DHT22;43217;52.694;6.214;2022-08-04T05:39:41;21.70;99.90
57390;DHT22;43217;52.694;6.214;2022-08-04T05:42:09;21.80;99.90
57390;DHT22;43217;52.694;6.214;2022-08-04T05:44:38;21.80;99.90
57390;DHT22;43217;52.694;6.214;2022-08-04T05:47:05;21.80;99.90
57390;DHT22;43217;52.694;6.214;2022-08-04T05:49:33;21.80;99.90
57390;DHT22;43217;52.694;6.214;2022-08-04T05:52:02;21.80;99.90
57390;DHT22;43217;52.694;6.214;2022-08-04T05:54:33;21.90;99.90
57390;DHT22;43217;52.694;6.214;2022-08-04T05:57:02;21.90;99.90
57390;DHT22;43217;52.694;6.214;2022-08-04T05:59:30;22.00;99.90
57390;DHT22;43217;52.694;6.214;2022-08-04T06:01:58;22.20;99.90
57390;DHT22;43217;52.694;6.214;2022-08-04T06:04:29;22.30;99.90
57390;DHT22;43217;52.694;6.214;2022-08-04T06:06:55;22.40;99.90
57390;DHT22;43217;52.694;6.214;2022-08-04T06:09:21;22.50;99.90
57390;DHT22;43217;52.694;6.214;2022-08-04T06:11:48;22.70;99.90
57390;DHT22;43217;52.694;6.214;2022-08-04T06:14:15;22.80;99.90
57390;DHT22;43217;52.694;6.214;2022-08-04T06:16:42;23.00;99.90
57390;DHT22;43217;52.694;6.214;2022-08-04T06:19:10;23.10;99.90
57390;DHT22;43217;52.694;6.214;2022-08-04T06:21:42;23.20;99.90
57390;DHT22;43217;52.694;6.214;2022-08-04T06:24:11;23.30;99.90
57390;DHT22;43217;52.694;6.214;2022-08-04T06:26:38;23.50;99.90
57390;DHT22;43217;52.694;6.214;2022-08-04T06:29:05;23.70;99.90
57390;DHT22;43217;52.694;6.214;2022-08-04T06:31:41;23.70;99.90
57390;DHT22;43217;52.694;6.214;2022-08-04T06:34:08;24.00;99.90
57390;DHT22;43217;52.694;6.214;2022-08-04T06:36:34;24.10;99.90
57390;DHT22;43217;52.694;6.214;2022-08-04T06:39:03;24.30;99.90
57390;DHT22;43217;52.694;6.214;2022-08-04T06:41:29;24.50;99.90
57390;DHT22;43217;52.694;6.214;2022-08-04T06:44:00;24.80;99.90
57390;DHT22;43217;52.694;6.214;2022-08-04T06:46:27;25.30;99.90
57390;DHT22;43217;52.694;6.214;2022-08-04T06:48:54;25.90;99.90
57390;DHT22;43217;52.694;6.214;2022-08-04T06:51:21;26.60;99.90
57390;DHT22;43217;52.694;6.214;2022-08-04T06:53:47;27.20;99.90
57390;DHT22;43217;52.694;6.214;2022-08-04T06:56:15;27.40;99.90
57390;DHT22;43217;52.694;6.214;2022-08-04T06:58:46;27.50;99.90
57390;DHT22;43217;52.694;6.214;2022-08-04T07:01:14;27.70;99.90
57390;DHT22;43217;52.694;6.214;2022-08-04T07:03:41;28.10;99.90
57390;DHT22;43217;52.694;6.214;2022-08-04T07:06:07;28.30;99.90
57390;DHT22;43217;52.694;6.214;2022-08-04T07:08:34;28.30;99.90
57390;DHT22;43217;52.694;6.214;2022-08-04T07:11:01;28.40;99.90
57390;DHT22;43217;52.694;6.214;2022-08-04T07:13:30;28.40;99.90
57390;DHT22;43217;52.694;6.214;2022-08-04T07:15:57;28.70;99.90
57390;DHT22;43217;52.694;6.214;2022-08-04T07:18:23;29.10;99.90
57390;DHT22;43217;52.694;6.214;2022-08-04T07:20:49;29.60;99.90
57390;DHT22;43217;52.694;6.214;2022-08-04T07:23:21;29.70;99.90
57390;DHT22;43217;52.694;6.214;2022-08-04T07:25:51;29.50;99.40
57390;DHT22;43217;52.694;6.214;2022-08-04T07:28:19;29.60;99.90
57390;DHT22;43217;52.694;6.214;2022-08-04T07:30:46;29.60;99.90
57390;DHT22;43217;52.694;6.214;2022-08-04T07:33:16;29.50;99.90
57390;DHT22;43217;52.694;6.214;2022-08-04T07:35:43;29.30;99.90
57390;DHT22;43217;52.694;6.214;2022-08-04T07:38:09;29.20;99.90
57390;DHT22;43217;52.694;6.214;2022-08-04T07:40:36;29.30;99.90
57390;DHT22;43217;52.694;6.214;2022-08-04T07:43:03;29.40;99.90
57390;DHT22;43217;52.694;6.214;2022-08-04T07:45:29;29.50;98.60
57390;DHT22;43217;52.694;6.214;2022-08-04T07:47:55;29.70;97.40
57390;DHT22;43217;52.694;6.214;2022-08-04T07:50:22;29.80;98.50
57390;DHT22;43217;52.694;6.214;2022-08-04T07:52:48;29.90;98.50
57390;DHT22;43217;52.694;6.214;2022-08-04T07:55:14;30.00;97.90
57390;DHT22;43217;52.694;6.214;2022-08-04T07:57:40;30.20;98.30
57390;DHT22;43217;52.694;6.214;2022-08-04T08:00:06;30.20;95.30
57390;DHT22;43217;52.694;6.214;2022-08-04T08:02:34;30.40;98.30
57390;DHT22;43217;52.694;6.214;2022-08-04T08:05:01;30.80;97.20
57390;DHT22;43217;52.694;6.214;2022-08-04T08:07:27;31.00;95.30
57390;DHT22;43217;52.694;6.214;2022-08-04T08:09:52;31.00;94.30
57390;DHT22;43217;52.694;6.214;2022-08-04T08:12:18;31.10;93.20
57390;DHT22;43217;52.694;6.214;2022-08-04T08:14:44;31.10;92.80
57390;DHT22;43217;52.694;6.214;2022-08-04T08:17:10;30.90;93.20
57390;DHT22;43217;52.694;6.214;2022-08-04T08:19:36;30.90;92.50
57390;DHT22;43217;52.694;6.214;2022-08-04T08:22:03;31.10;90.80
57390;DHT22;43217;52.694;6.214;2022-08-04T08:24:34;31.10;88.90
57390;DHT22;43217;52.694;6.214;2022-08-04T08:27:01;31.00;88.90
57390;DHT22;43217;52.694;6.214;2022-08-04T08:29:29;30.80;90.40
57390;DHT22;43217;52.694;6.214;2022-08-04T08:31:55;30.60;91.10
57390;DHT22;43217;52.694;6.214;2022-08-04T08:34:21;30.60;91.70
57390;DHT22;43217;52.694;6.214;2022-08-04T08:36:56;30.60;91.10
57390;DHT22;43217;52.694;6.214;2022-08-04T08:39:41;30.50;91.40
57390;DHT22;43217;52.694;6.214;2022-08-04T08:45:41;30.50;93.30
57390;DHT22;43217;52.694;6.214;2022-08-04T08:51:32;31.20;90.60
57390;DHT22;43217;52.694;6.214;2022-08-04T08:56:53;31.90;88.70
57390;DHT22;43217;52.694;6.214;2022-08-04T08:59:37;31.90;81.90
57390;DHT22;43217;52.694;6.214;2022-08-04T09:02:38;31.90;83.50
57390;DHT22;43217;52.694;6.214;2022-08-04T09:08:11;32.30;79.80
57390;DHT22;43217;52.694;6.214;2022-08-04T09:13:40;32.40;78.90
57390;DHT22;43217;52.694;6.214;2022-08-04T09:22:15;32.00;73.60
57390;DHT22;43217;52.694;6.214;2022-08-04T09:25:01;31.90;73.70
57390;DHT22;43217;52.694;6.214;2022-08-04T09:27:49;31.90;74.60
57390;DHT22;43217;52.694;6.214;2022-08-04T09:30:18;32.10;74.60
57390;DHT22;43217;52.694;6.214;2022-08-04T09:38:41;32.00;72.60
57390;DHT22;43217;52.694;6.214;2022-08-04T09:46:56;31.50;74.70
57390;DHT22;43217;52.694;6.214;2022-08-04T09:49:48;31.30;76.00
57390;DHT22;43217;52.694;6.214;2022-08-04T09:52:28;31.20;74.90
57390;DHT22;43217;52.694;6.214;2022-08-04T09:55:04;31.10;75.50
57390;DHT22;43217;52.694;6.214;2022-08-04T09:58:00;31.10;76.60
57390;DHT22;43217;52.694;6.214;2022-08-04T10:00:39;31.20;77.50
57390;DHT22;43217;52.694;6.214;2022-08-04T10:03:06;31.00;76.40
57390;DHT22;43217;52.694;6.214;2022-08-04T10:06:26;31.00;76.00
57390;DHT22;43217;52.694;6.214;2022-08-04T10:11:18;31.00;76.60
57390;DHT22;43217;52.694;6.214;2022-08-04T10:14:12;31.10;76.90
57390;DHT22;43217;52.694;6.214;2022-08-04T10:16:46;31.10;74.70
57390;DHT22;43217;52.694;6.214;2022-08-04T10:19:23;31.10;77.20
57390;DHT22;43217;52.694;6.214;2022-08-04T10:24:47;31.20;75.90
57390;DHT22;43217;52.694;6.214;2022-08-04T10:27:24;31.20;76.00
57390;DHT22;43217;52.694;6.214;2022-08-04T10:29:57;31.20;78.60
57390;DHT22;43217;52.694;6.214;2022-08-04T10:32:40;31.20;77.60
57390;DHT22;43217;52.694;6.214;2022-08-04T10:35:18;31.30;76.20
57390;DHT22;43217;52.694;6.214;2022-08-04T10:38:04;31.10;75.10
57390;DHT22;43217;52.694;6.214;2022-08-04T10:40:53;30.90;75.20
57390;DHT22;43217;52.694;6.214;2022-08-04T10:43:41;30.50;77.00
57390;DHT22;43217;52.694;6.214;2022-08-04T10:46:30;30.40;80.60
57390;DHT22;43217;52.694;6.214;2022-08-04T10:49:03;30.40;83.30
57390;DHT22;43217;52.694;6.214;2022-08-04T10:51:33;30.50;82.60
57390;DHT22;43217;52.694;6.214;2022-08-04T10:54:07;30.50;79.60
57390;DHT22;43217;52.694;6.214;2022-08-04T10:56:38;30.60;81.70
57390;DHT22;43217;52.694;6.214;2022-08-04T10:59:16;30.60;79.70
57390;DHT22;43217;52.694;6.214;2022-08-04T11:01:47;30.60;77.70
57390;DHT22;43217;52.694;6.214;2022-08-04T11:04:40;30.60;76.90
57390;DHT22;43217;52.694;6.214;2022-08-04T11:07:07;30.70;76.60
57390;DHT22;43217;52.694;6.214;2022-08-04T11:09:34;30.50;76.40
57390;DHT22;43217;52.694;6.214;2022-08-04T11:12:24;30.50;77.60
57390;DHT22;43217;52.694;6.214;2022-08-04T11:15:08;30.50;79.20
57390;DHT22;43217;52.694;6.214;2022-08-04T11:17:37;30.40;79.40
57390;DHT22;43217;52.694;6.214;2022-08-04T11:20:34;30.30;75.20
57390;DHT22;43217;52.694;6.214;2022-08-04T11:23:10;30.30;71.40
57390;DHT22;43217;52.694;6.214;2022-08-04T11:25:43;30.20;71.60
57390;DHT22;43217;52.694;6.214;2022-08-04T11:31:11;30.00;71.40
57390;DHT22;43217;52.694;6.214;2022-08-04T11:34:01;29.80;72.30
57390;DHT22;43217;52.694;6.214;2022-08-04T11:39:36;29.60;71.80
57390;DHT22;43217;52.694;6.214;2022-08-04T11:42:27;29.40;72.40
57390;DHT22;43217;52.694;6.214;2022-08-04T11:45:12;29.30;71.70
57390;DHT22;43217;52.694;6.214;2022-08-04T11:50:21;28.90;71.40
57390;DHT22;43217;52.694;6.214;2022-08-04T11:52:49;28.80;71.80
57390;DHT22;43217;52.694;6.214;2022-08-04T11:55:17;28.70;72.30
57390;DHT22;43217;52.694;6.214;2022-08-04T11:57:47;28.50;72.20
57390;DHT22;43217;52.694;6.214;2022-08-04T12:00:15;28.40;73.30
57390;DHT22;43217;52.694;6.214;2022-08-04T12:02:57;28.30;73.90
57390;DHT22;43217;52.694;6.214;2022-08-04T12:05:40;28.20;75.30
57390;DHT22;43217;52.694;6.214;2022-08-04T12:08:42;28.10;75.80
57390;DHT22;43217;52.694;6.214;2022-08-04T12:14:45;27.80;77.60
57390;DHT22;43217;52.694;6.214;2022-08-04T12:17:01;27.70;79.10
57390;DHT22;43217;52.694;6.214;2022-08-04T12:19:48;27.70;81.20
57390;DHT22;43217;52.694;6.214;2022-08-04T12:22:22;27.70;82.00
57390;DHT22;43217;52.694;6.214;2022-08-04T12:24:53;27.80;81.30
57390;DHT22;43217;52.694;6.214;2022-08-04T12:27:48;27.90;80.70
57390;DHT22;43217;52.694;6.214;2022-08-04T12:30:17;28.10;78.40
57390;DHT22;43217;52.694;6.214;2022-08-04T12:32:51;28.20;76.70
57390;DHT22;43217;52.694;6.214;2022-08-04T12:38:22;28.40;74.20
57390;DHT22;43217;52.694;6.214;2022-08-04T12:40:51;28.50;72.80
57390;DHT22;43217;52.694;6.214;2022-08-04T12:43:39;28.60;72.80
57390;DHT22;43217;52.694;6.214;2022-08-04T12:46:08;28.60;71.20
57390;DHT22;43217;52.694;6.214;2022-08-04T12:48:36;28.60;70.10
57390;DHT22;43217;52.694;6.214;2022-08-04T12:51:05;28.60;69.60
57390;DHT22;43217;52.694;6.214;2022-08-04T12:53:38;28.60;70.40
57390;DHT22;43217;52.694;6.214;2022-08-04T12:56:05;28.60;69.40
57390;DHT22;43217;52.694;6.214;2022-08-04T12:58:46;28.60;69.70
57390;DHT22;43217;52.694;6.214;2022-08-04T13:01:18;28.70;70.40
57390;DHT22;43217;52.694;6.214;2022-08-04T13:03:47;28.70;69.20
57390;DHT22;43217;52.694;6.214;2022-08-04T13:06:14;28.90;68.90
57390;DHT22;43217;52.694;6.214;2022-08-04T13:08:43;29.10;68.60
57390;DHT22;43217;52.694;6.214;2022-08-04T13:11:10;29.20;67.90
57390;DHT22;43217;52.694;6.214;2022-08-04T13:13:38;29.20;67.10
57390;DHT22;43217;52.694;6.214;2022-08-04T13:16:08;29.20;67.10
57390;DHT22;43217;52.694;6.214;2022-08-04T13:18:40;29.20;65.80
57390;DHT22;43217;52.694;6.214;2022-08-04T13:21:18;29.10;66.20
57390;DHT22;43217;52.694;6.214;2022-08-04T13:23:51;29.10;65.60
57390;DHT22;43217;52.694;6.214;2022-08-04T13:26:19;29.00;65.60
57390;DHT22;43217;52.694;6.214;2022-08-04T13:28:47;28.80;65.70
57390;DHT22;43217;52.694;6.214;2022-08-04T13:31:15;28.80;67.70
57390;DHT22;43217;52.694;6.214;2022-08-04T13:33:44;28.80;67.90
57390;DHT22;43217;52.694;6.214;2022-08-04T13:36:11;28.90;67.60
57390;DHT22;43217;52.694;6.214;2022-08-04T13:38:50;28.90;66.80
57390;DHT22;43217;52.694;6.214;2022-08-04T13:41:18;28.90;66.30
57390;DHT22;43217;52.694;6.214;2022-08-04T13:43:52;28.70;65.30
57390;DHT22;43217;52.694;6.214;2022-08-04T13:46:21;28.70;65.20
57390;DHT22;43217;52.694;6.214;2022-08-04T13:48:48;28.70;65.60
57390;DHT22;43217;52.694;6.214;2022-08-04T13:51:18;28.70;66.70
57390;DHT22;43217;52.694;6.214;2022-08-04T13:53:44;28.70;66.10
57390;DHT22;43217;52.694;6.214;2022-08-04T13:56:13;28.70;66.30
57390;DHT22;43217;52.694;6.214;2022-08-04T13:58:45;28.80;66.10
57390;DHT22;43217;52.694;6.214;2022-08-04T14:01:15;28.80;65.80
57390;DHT22;43217;52.694;6.214;2022-08-04T14:06:31;28.80;65.90
57390;DHT22;43217;52.694;6.214;2022-08-04T14:09:20;28.70;66.20
57390;DHT22;43217;52.694;6.214;2022-08-04T14:11:51;28.80;65.50
57390;DHT22;43217;52.694;6.214;2022-08-04T14:14:27;28.80;66.30
57390;DHT22;43217;52.694;6.214;2022-08-04T14:17:04;28.60;66.40
57390;DHT22;43217;52.694;6.214;2022-08-04T14:25:15;28.60;68.30
57390;DHT22;43217;52.694;6.214;2022-08-04T14:27:42;28.50;67.00
57390;DHT22;43217;52.694;6.214;2022-08-04T14:35:24;28.40;67.40
57390;DHT22;43217;52.694;6.214;2022-08-04T14:37:55;28.50;68.20
57390;DHT22;43217;52.694;6.214;2022-08-04T14:40:29;28.50;67.00
57390;DHT22;43217;52.694;6.214;2022-08-04T14:42:55;28.50;67.30
57390;DHT22;43217;52.694;6.214;2022-08-04T14:45:42;28.50;67.20
57390;DHT22;43217;52.694;6.214;2022-08-04T14:48:11;28.60;67.60
57390;DHT22;43217;52.694;6.214;2022-08-04T14:53:19;28.60;67.60
57390;DHT22;43217;52.694;6.214;2022-08-04T14:55:49;28.60;67.00
57390;DHT22;43217;52.694;6.214;2022-08-04T14:58:21;28.60;66.80
57390;DHT22;43217;52.694;6.214;2022-08-04T15:00:48;28.50;66.60
57390;DHT22;43217;52.694;6.214;2022-08-04T15:03:14;28.40;66.80
57390;DHT22;43217;52.694;6.214;2022-08-04T15:05:43;28.40;66.90
57390;DHT22;43217;52.694;6.214;2022-08-04T15:08:11;28.30;66.90
57390;DHT22;43217;52.694;6.214;2022-08-04T15:10:38;28.20;67.30
57390;DHT22;43217;52.694;6.214;2022-08-04T15:13:05;28.20;66.90
57390;DHT22;43217;52.694;6.214;2022-08-04T15:15:31;28.10;67.50
57390;DHT22;43217;52.694;6.214;2022-08-04T15:17:57;28.10;67.10
57390;DHT22;43217;52.694;6.214;2022-08-04T15:20:23;28.10;66.10
57390;DHT22;43217;52.694;6.214;2022-08-04T15:22:49;28.20;66.90
57390;DHT22;43217;52.694;6.214;2022-08-04T15:25:15;28.10;67.40
57390;DHT22;43217;52.694;6.214;2022-08-04T15:27:41;28.10;67.20
57390;DHT22;43217;52.694;6.214;2022-08-04T15:30:10;27.90;66.70
57390;DHT22;43217;52.694;6.214;2022-08-04T15:32:58;27.80;67.10
57390;DHT22;43217;52.694;6.214;2022-08-04T15:35:26;27.80;67.60
57390;DHT22;43217;52.694;6.214;2022-08-04T15:38:02;27.80;67.70
57390;DHT22;43217;52.694;6.214;2022-08-04T15:40:38;27.80;68.00
57390;DHT22;43217;52.694;6.214;2022-08-04T15:45:56;27.80;67.90
57390;DHT22;43217;52.694;6.214;2022-08-04T15:48:27;27.70;68.60
57390;DHT22;43217;52.694;6.214;2022-08-04T15:58:53;27.60;69.10
57390;DHT22;43217;52.694;6.214;2022-08-04T16:01:22;27.50;69.60
57390;DHT22;43217;52.694;6.214;2022-08-04T16:03:49;27.40;69.80
57390;DHT22;43217;52.694;6.214;2022-08-04T16:19:09;27.10;70.70
57390;DHT22;43217;52.694;6.214;2022-08-04T16:21:49;27.10;71.20
57390;DHT22;43217;52.694;6.214;2022-08-04T16:24:19;27.10;72.00
57390;DHT22;43217;52.694;6.214;2022-08-04T16:26:53;27.10;73.00
57390;DHT22;43217;52.694;6.214;2022-08-04T16:29:32;26.90;73.40
57390;DHT22;43217;52.694;6.214;2022-08-04T16:34:31;26.80;76.00
57390;DHT22;43217;52.694;6.214;2022-08-04T16:37:07;26.70;76.70
57390;DHT22;43217;52.694;6.214;2022-08-04T16:39:34;26.70;77.00
57390;DHT22;43217;52.694;6.214;2022-08-04T16:45:21;26.70;81.30
57390;DHT22;43217;52.694;6.214;2022-08-04T16:50:18;26.50;83.80
57390;DHT22;43217;52.694;6.214;2022-08-04T16:52:50;26.50;86.00
57390;DHT22;43217;52.694;6.214;2022-08-04T16:55:22;26.40;89.70
57390;DHT22;43217;52.694;6.214;2022-08-04T16:57:52;26.30;90.00
57390;DHT22;43217;52.694;6.214;2022-08-04T17:00:35;26.30;91.50
57390;DHT22;43217;52.694;6.214;2022-08-04T17:03:06;26.30;91.20
57390;DHT22;43217;52.694;6.214;2022-08-04T17:05:32;26.20;90.90
57390;DHT22;43217;52.694;6.214;2022-08-04T17:07:59;26.20;91.00
57390;DHT22;43217;52.694;6.214;2022-08-04T17:10:43;26.20;90.50
57390;DHT22;43217;52.694;6.214;2022-08-04T17:13:43;26.20;90.40
57390;DHT22;43217;52.694;6.214;2022-08-04T17:16:13;26.20;90.70
57390;DHT22;43217;52.694;6.214;2022-08-04T17:18:43;26.20;91.70
57390;DHT22;43217;52.694;6.214;2022-08-04T17:21:12;26.20;92.00
57390;DHT22;43217;52.694;6.214;2022-08-04T17:23:41;26.20;92.80
57390;DHT22;43217;52.694;6.214;2022-08-04T17:26:13;26.20;92.60
57390;DHT22;43217;52.694;6.214;2022-08-04T17:28:40;26.20;93.10
57390;DHT22;43217;52.694;6.214;2022-08-04T17:31:10;26.20;93.10
57390;DHT22;43217;52.694;6.214;2022-08-04T17:33:37;26.10;93.60
57390;DHT22;43217;52.694;6.214;2022-08-04T17:36:05;26.10;93.70
57390;DHT22;43217;52.694;6.214;2022-08-04T17:38:40;26.10;94.20
57390;DHT22;43217;52.694;6.214;2022-08-04T17:41:09;26.10;95.10
57390;DHT22;43217;52.694;6.214;2022-08-04T17:43:36;26.00;95.90
57390;DHT22;43217;52.694;6.214;2022-08-04T17:48:40;26.00;96.40
57390;DHT22;43217;52.694;6.214;2022-08-04T17:51:14;25.80;96.50
57390;DHT22;43217;52.694;6.214;2022-08-04T17:53:40;25.80;97.00
57390;DHT22;43217;52.694;6.214;2022-08-04T17:56:37;25.70;96.90
57390;DHT22;43217;52.694;6.214;2022-08-04T18:06:58;25.50;96.90
57390;DHT22;43217;52.694;6.214;2022-08-04T18:09:29;25.40;97.40
57390;DHT22;43217;52.694;6.214;2022-08-04T18:14:58;25.40;98.30
57390;DHT22;43217;52.694;6.214;2022-08-04T18:17:39;25.30;99.70
57390;DHT22;43217;52.694;6.214;2022-08-04T18:20:13;25.20;99.90
57390;DHT22;43217;52.694;6.214;2022-08-04T18:22:40;25.10;99.90
57390;DHT22;43217;52.694;6.214;2022-08-04T18:25:09;25.00;99.90
57390;DHT22;43217;52.694;6.214;2022-08-04T18:27:52;24.90;99.90
57390;DHT22;43217;52.694;6.214;2022-08-04T18:30:24;24.80;99.90
57390;DHT22;43217;52.694;6.214;2022-08-04T18:32:51;24.70;99.90
57390;DHT22;43217;52.694;6.214;2022-08-04T18:35:22;24.70;99.90
57390;DHT22;43217;52.694;6.214;2022-08-04T18:37:50;24.60;99.90
57390;DHT22;43217;52.694;6.214;2022-08-04T18:40:16;24.60;99.90
57390;DHT22;43217;52.694;6.214;2022-08-04T18:42:42;24.50;99.90
57390;DHT22;43217;52.694;6.214;2022-08-04T18:45:08;24.50;99.90
57390;DHT22;43217;52.694;6.214;2022-08-04T18:47:38;24.40;99.90
57390;DHT22;43217;52.694;6.214;2022-08-04T18:50:04;24.40;99.90
57390;DHT22;43217;52.694;6.214;2022-08-04T18:52:30;24.40;99.90
57390;DHT22;43217;52.694;6.214;2022-08-04T18:54:56;24.30;99.90
57390;DHT22;43217;52.694;6.214;2022-08-04T18:57:23;24.30;99.90
57390;DHT22;43217;52.694;6.214;2022-08-04T18:59:49;24.20;99.90
57390;DHT22;43217;52.694;6.214;2022-08-04T19:02:17;24.20;99.90
57390;DHT22;43217;52.694;6.214;2022-08-04T19:04:43;24.10;99.90
57390;DHT22;43217;52.694;6.214;2022-08-04T19:07:10;24.10;99.90
57390;DHT22;43217;52.694;6.214;2022-08-04T19:09:43;24.00;99.90
57390;DHT22;43217;52.694;6.214;2022-08-04T19:12:09;24.00;99.90
57390;DHT22;43217;52.694;6.214;2022-08-04T19:14:35;23.90;99.90
57390;DHT22;43217;52.694;6.214;2022-08-04T19:17:00;23.90;99.90
57390;DHT22;43217;52.694;6.214;2022-08-04T19:19:26;23.90;99.90
57390;DHT22;43217;52.694;6.214;2022-08-04T19:21:52;23.90;99.90
57390;DHT22;43217;52.694;6.214;2022-08-04T19:24:20;23.90;99.90
57390;DHT22;43217;52.694;6.214;2022-08-04T19:26:45;23.90;99.90
57390;DHT22;43217;52.694;6.214;2022-08-04T19:29:11;23.80;99.90
57390;DHT22;43217;52.694;6.214;2022-08-04T19:31:39;23.80;99.90
57390;DHT22;43217;52.694;6.214;2022-08-04T19:34:04;23.80;99.90
57390;DHT22;43217;52.694;6.214;2022-08-04T19:36:30;23.70;99.90
57390;DHT22;43217;52.694;6.214;2022-08-04T19:38:57;23.70;99.90
57390;DHT22;43217;52.694;6.214;2022-08-04T19:41:24;23.60;99.90
57390;DHT22;43217;52.694;6.214;2022-08-04T19:43:50;23.60;99.90
57390;DHT22;43217;52.694;6.214;2022-08-04T19:46:16;23.60;99.90
57390;DHT22;43217;52.694;6.214;2022-08-04T19:48:42;23.50;99.90
57390;DHT22;43217;52.694;6.214;2022-08-04T19:51:08;23.50;99.90
57390;DHT22;43217;52.694;6.214;2022-08-04T19:53:34;23.40;99.90
57390;DHT22;43217;52.694;6.214;2022-08-04T19:56:00;23.40;99.90
57390;DHT22;43217;52.694;6.214;2022-08-04T19:58:25;23.30;99.90
57390;DHT22;43217;52.694;6.214;2022-08-04T20:00:54;23.20;99.90
57390;DHT22;43217;52.694;6.214;2022-08-04T20:03:20;23.20;99.90
57390;DHT22;43217;52.694;6.214;2022-08-04T20:05:46;23.20;99.90
57390;DHT22;43217;52.694;6.214;2022-08-04T20:08:12;23.10;99.90
57390;DHT22;43217;52.694;6.214;2022-08-04T20:10:38;23.00;99.90
57390;DHT22;43217;52.694;6.214;2022-08-04T20:13:04;22.90;99.90